BOE035 SKUC-SKPC
Flight info
| Callsign | BOE035 |
|---|---|
| Flight time | 0h 39m |
| Altitude | 27000 |
| Route | GARCI1B GARCI DCT OPRUS DCT SIDUN SIDUN2B |
| Aircraft | B738/M-SDE2E3FGHIRWXY/LB1 |
Departure
| Time | 2026-04-12 17:04 |
|---|---|
| Airport | Santiago Perez Airport (SKUC) |
Arrival
| Time | 2026-04-12 17:43 |
|---|---|
| Airport | German Olano Airport (SKPC) |
| Time | Latitude | Longitude | Altitude | Speed | Heading |
|---|---|---|---|---|---|
| 2026-04-12 16:30 | 7.06968 | -70.73831 | 427 ft | 0 kts | 99° |
| 2026-04-12 16:59 | 7.06966 | -70.73819 | 427 ft | 5 kts | 99° |
| 2026-04-12 17:00 | 7.06965 | -70.73813 | 427 ft | 0 kts | 99° |
| 2026-04-12 17:00 | 7.06963 | -70.73805 | 427 ft | 4 kts | 109° |
| 2026-04-12 17:00 | 7.06926 | -70.73783 | 429 ft | 9 kts | 189° |
| 2026-04-12 17:01 | 7.06913 | -70.73864 | 429 ft | 16 kts | 277° |
| 2026-04-12 17:01 | 7.06931 | -70.73999 | 428 ft | 22 kts | 278° |
| 2026-04-12 17:01 | 7.06952 | -70.74161 | 425 ft | 25 kts | 277° |
| 2026-04-12 17:01 | 7.06976 | -70.74340 | 425 ft | 26 kts | 277° |
| 2026-04-12 17:02 | 7.06999 | -70.74528 | 424 ft | 28 kts | 277° |
| 2026-04-12 17:02 | 7.06998 | -70.74626 | 424 ft | 7 kts | 317° |
| 2026-04-12 17:02 | 7.07009 | -70.74621 | 424 ft | 2 kts | 70° |
| 2026-04-12 17:02 | 7.07009 | -70.74602 | 424 ft | 4 kts | 89° |
| 2026-04-12 17:03 | 7.07007 | -70.74580 | 424 ft | 0 kts | 98° |
| 2026-04-12 17:03 | 7.06996 | -70.74496 | 425 ft | 47 kts | 97° |
| 2026-04-12 17:03 | 7.06913 | -70.73856 | 429 ft | 134 kts | 97° |
| 2026-04-12 17:03 | 7.06765 | -70.72756 | 888 ft | 165 kts | 97° |
| 2026-04-12 17:04 | 7.06631 | -70.71642 | 2026 ft | 158 kts | 98° |
| 2026-04-12 17:04 | 7.06485 | -70.70521 | 2912 ft | 172 kts | 98° |
| 2026-04-12 17:04 | 7.06317 | -70.69196 | 3336 ft | 211 kts | 98° |
| 2026-04-12 17:04 | 7.06104 | -70.67619 | 3592 ft | 243 kts | 98° |
| 2026-04-12 17:05 | 7.05860 | -70.65832 | 3987 ft | 268 kts | 98° |
| 2026-04-12 17:05 | 7.05599 | -70.63947 | 4881 ft | 275 kts | 98° |
| 2026-04-12 17:05 | 7.05333 | -70.62035 | 5933 ft | 277 kts | 98° |
| 2026-04-12 17:05 | 7.04976 | -70.60117 | 6897 ft | 281 kts | 105° |
| 2026-04-12 17:06 | 7.04424 | -70.58211 | 7816 ft | 286 kts | 108° |
| 2026-04-12 17:06 | 7.03820 | -70.56290 | 8724 ft | 290 kts | 108° |
| 2026-04-12 17:06 | 7.03201 | -70.54337 | 9602 ft | 295 kts | 108° |
| 2026-04-12 17:06 | 7.02578 | -70.52348 | 10398 ft | 303 kts | 108° |
| 2026-04-12 17:07 | 7.01926 | -70.50243 | 10682 ft | 327 kts | 108° |
| 2026-04-12 17:07 | 7.01243 | -70.48017 | 11255 ft | 337 kts | 107° |
| 2026-04-12 17:07 | 7.00551 | -70.45743 | 11999 ft | 342 kts | 107° |
| 2026-04-12 17:07 | 6.99856 | -70.43443 | 12755 ft | 345 kts | 107° |
| 2026-04-12 17:08 | 6.99155 | -70.41118 | 13476 ft | 349 kts | 107° |
| 2026-04-12 17:08 | 6.98446 | -70.38762 | 14171 ft | 354 kts | 107° |
| 2026-04-12 17:08 | 6.97728 | -70.36376 | 14851 ft | 358 kts | 107° |
| 2026-04-12 17:08 | 6.97002 | -70.33962 | 15515 ft | 362 kts | 107° |
| 2026-04-12 17:09 | 6.96268 | -70.31520 | 16153 ft | 366 kts | 107° |
| 2026-04-12 17:09 | 6.95526 | -70.29056 | 16784 ft | 370 kts | 107° |
| 2026-04-12 17:09 | 6.94777 | -70.26568 | 17379 ft | 373 kts | 107° |
| 2026-04-12 17:09 | 6.94019 | -70.24053 | 17930 ft | 377 kts | 107° |
| 2026-04-12 17:10 | 6.93254 | -70.21514 | 18454 ft | 381 kts | 107° |
| 2026-04-12 17:10 | 6.92480 | -70.18950 | 18955 ft | 385 kts | 107° |
| 2026-04-12 17:10 | 6.91700 | -70.16365 | 19432 ft | 388 kts | 107° |
| 2026-04-12 17:10 | 6.90912 | -70.13754 | 19891 ft | 391 kts | 107° |
| 2026-04-12 17:11 | 6.90117 | -70.11125 | 20333 ft | 395 kts | 107° |
| 2026-04-12 17:11 | 6.89315 | -70.08471 | 20754 ft | 398 kts | 107° |
| 2026-04-12 17:11 | 6.88506 | -70.05799 | 21152 ft | 401 kts | 107° |
| 2026-04-12 17:11 | 6.87693 | -70.03113 | 21578 ft | 402 kts | 107° |
| 2026-04-12 17:12 | 6.86878 | -70.00423 | 22079 ft | 401 kts | 108° |
| 2026-04-12 17:12 | 6.85814 | -69.97839 | 22567 ft | 400 kts | 120° |
| 2026-04-12 17:12 | 6.84160 | -69.95655 | 23016 ft | 399 kts | 137° |
| 2026-04-12 17:12 | 6.81966 | -69.93961 | 23481 ft | 397 kts | 145° |
| 2026-04-12 17:13 | 6.79684 | -69.92387 | 23912 ft | 398 kts | 146° |
| 2026-04-12 17:13 | 6.77384 | -69.90834 | 24275 ft | 399 kts | 146° |
| 2026-04-12 17:13 | 6.75077 | -69.89274 | 24688 ft | 399 kts | 146° |
| 2026-04-12 17:13 | 6.72782 | -69.87707 | 24992 ft | 398 kts | 146° |
| 2026-04-12 17:14 | 6.70504 | -69.86139 | 24988 ft | 396 kts | 146° |
| 2026-04-12 17:14 | 6.68233 | -69.84566 | 25003 ft | 398 kts | 146° |
| 2026-04-12 17:14 | 6.65954 | -69.82981 | 25010 ft | 398 kts | 146° |
| 2026-04-12 17:14 | 6.63674 | -69.81394 | 25006 ft | 398 kts | 146° |
| 2026-04-12 17:15 | 6.61402 | -69.79812 | 25001 ft | 397 kts | 146° |
| 2026-04-12 17:15 | 6.59129 | -69.78230 | 25002 ft | 397 kts | 146° |
| 2026-04-12 17:15 | 6.56857 | -69.76649 | 25005 ft | 397 kts | 146° |
| 2026-04-12 17:15 | 6.54585 | -69.75068 | 25003 ft | 397 kts | 146° |
| 2026-04-12 17:16 | 6.52308 | -69.73484 | 25012 ft | 400 kts | 146° |
| 2026-04-12 17:16 | 6.50011 | -69.71887 | 25395 ft | 399 kts | 146° |
| 2026-04-12 17:16 | 6.47832 | -69.70208 | 26026 ft | 393 kts | 138° |
| 2026-04-12 17:16 | 6.45963 | -69.68197 | 26380 ft | 395 kts | 127° |
| 2026-04-12 17:17 | 6.44359 | -69.65938 | 26612 ft | 399 kts | 125° |
| 2026-04-12 17:17 | 6.42785 | -69.63621 | 26850 ft | 403 kts | 124° |
| 2026-04-12 17:17 | 6.41212 | -69.61284 | 27124 ft | 405 kts | 124° |
| 2026-04-12 17:17 | 6.39628 | -69.58936 | 27402 ft | 406 kts | 124° |
| 2026-04-12 17:18 | 6.38032 | -69.56585 | 27658 ft | 408 kts | 124° |
| 2026-04-12 17:18 | 6.36637 | -69.54086 | 27762 ft | 414 kts | 112° |
| 2026-04-12 17:18 | 6.35724 | -69.51329 | 27990 ft | 416 kts | 104° |
| 2026-04-12 17:18 | 6.35223 | -69.48475 | 28327 ft | 415 kts | 98° |
| 2026-04-12 17:19 | 6.34820 | -69.45604 | 28587 ft | 415 kts | 98° |
| 2026-04-12 17:19 | 6.34432 | -69.42717 | 28771 ft | 418 kts | 98° |
| 2026-04-12 17:19 | 6.34044 | -69.39815 | 28941 ft | 420 kts | 98° |
| 2026-04-12 17:20 | 6.33261 | -69.34108 | 28987 ft | 405 kts | 98° |
| 2026-04-12 17:20 | 6.32462 | -69.28440 | 29015 ft | 414 kts | 98° |
| 2026-04-12 17:21 | 6.31636 | -69.22652 | 29010 ft | 422 kts | 98° |
| 2026-04-12 17:21 | 6.30800 | -69.16809 | 29010 ft | 428 kts | 98° |
| 2026-04-12 17:22 | 6.29957 | -69.10922 | 28988 ft | 415 kts | 98° |
| 2026-04-12 17:22 | 6.29129 | -69.05141 | 29012 ft | 422 kts | 98° |
| 2026-04-12 17:22 | 6.28704 | -69.02178 | 28475 ft | 438 kts | 98° |
| 2026-04-12 17:23 | 6.28262 | -68.99100 | 27889 ft | 453 kts | 98° |
| 2026-04-12 17:23 | 6.27804 | -68.95912 | 27192 ft | 468 kts | 98° |
| 2026-04-12 17:23 | 6.27339 | -68.92668 | 26459 ft | 467 kts | 98° |
| 2026-04-12 17:23 | 6.26879 | -68.89463 | 25733 ft | 460 kts | 98° |
| 2026-04-12 17:24 | 6.26427 | -68.86312 | 25022 ft | 453 kts | 98° |
| 2026-04-12 17:24 | 6.25980 | -68.83199 | 24318 ft | 446 kts | 98° |
| 2026-04-12 17:24 | 6.25540 | -68.80136 | 23624 ft | 440 kts | 98° |
| 2026-04-12 17:24 | 6.25105 | -68.77115 | 22935 ft | 434 kts | 98° |
| 2026-04-12 17:25 | 6.24676 | -68.74133 | 22256 ft | 428 kts | 98° |
| 2026-04-12 17:25 | 6.24252 | -68.71186 | 21580 ft | 423 kts | 98° |
| 2026-04-12 17:25 | 6.23833 | -68.68279 | 20912 ft | 418 kts | 98° |
| 2026-04-12 17:25 | 6.23419 | -68.65405 | 20248 ft | 413 kts | 98° |
| 2026-04-12 17:26 | 6.23010 | -68.62566 | 19591 ft | 408 kts | 98° |
| 2026-04-12 17:26 | 6.22606 | -68.59760 | 18940 ft | 404 kts | 98° |
| 2026-04-12 17:26 | 6.22205 | -68.56985 | 18293 ft | 399 kts | 98° |
| 2026-04-12 17:26 | 6.21809 | -68.54238 | 17651 ft | 395 kts | 98° |
| 2026-04-12 17:27 | 6.21416 | -68.51518 | 17015 ft | 391 kts | 98° |
| 2026-04-12 17:27 | 6.21028 | -68.48829 | 16424 ft | 386 kts | 98° |
| 2026-04-12 17:27 | 6.20645 | -68.46177 | 15828 ft | 382 kts | 98° |
| 2026-04-12 17:27 | 6.20268 | -68.43565 | 15219 ft | 378 kts | 98° |
| 2026-04-12 17:28 | 6.19892 | -68.40963 | 14608 ft | 374 kts | 98° |
| 2026-04-12 17:28 | 6.19520 | -68.38389 | 14008 ft | 371 kts | 98° |
| 2026-04-12 17:28 | 6.19150 | -68.35838 | 13402 ft | 368 kts | 98° |
| 2026-04-12 17:28 | 6.18784 | -68.33304 | 12780 ft | 366 kts | 98° |
| 2026-04-12 17:29 | 6.18417 | -68.30776 | 12183 ft | 366 kts | 98° |
| 2026-04-12 17:29 | 6.18089 | -68.28514 | 11640 ft | 367 kts | 98° |
| 2026-04-12 17:29 | 6.17722 | -68.25973 | 10934 ft | 367 kts | 98° |
| 2026-04-12 17:29 | 6.17358 | -68.23465 | 10652 ft | 355 kts | 97° |
| 2026-04-12 17:30 | 6.17010 | -68.21066 | 10496 ft | 340 kts | 97° |
| 2026-04-12 17:30 | 6.16675 | -68.18762 | 10379 ft | 325 kts | 97° |
| 2026-04-12 17:30 | 6.16462 | -68.17296 | 10287 ft | 317 kts | 97° |
| 2026-04-12 17:30 | 6.16151 | -68.15147 | 10172 ft | 305 kts | 97° |
| 2026-04-12 17:31 | 6.15851 | -68.13079 | 10049 ft | 293 kts | 98° |
| 2026-04-12 17:31 | 6.15561 | -68.11079 | 9831 ft | 287 kts | 98° |
| 2026-04-12 17:31 | 6.15274 | -68.09097 | 9514 ft | 285 kts | 98° |
| 2026-04-12 17:31 | 6.14989 | -68.07131 | 9200 ft | 284 kts | 99° |
| 2026-04-12 17:32 | 6.14704 | -68.05174 | 8877 ft | 282 kts | 99° |
| 2026-04-12 17:32 | 6.14422 | -68.03231 | 8561 ft | 280 kts | 98° |
| 2026-04-12 17:32 | 6.14142 | -68.01302 | 8233 ft | 278 kts | 99° |
| 2026-04-12 17:32 | 6.13863 | -67.99382 | 7919 ft | 277 kts | 99° |
| 2026-04-12 17:33 | 6.13586 | -67.97477 | 7606 ft | 275 kts | 98° |
| 2026-04-12 17:33 | 6.13311 | -67.95581 | 7302 ft | 273 kts | 98° |
| 2026-04-12 17:33 | 6.13038 | -67.93694 | 6968 ft | 273 kts | 99° |
| 2026-04-12 17:33 | 6.12762 | -67.91807 | 6647 ft | 272 kts | 98° |
| 2026-04-12 17:34 | 6.12489 | -67.89932 | 6338 ft | 271 kts | 98° |
| 2026-04-12 17:34 | 6.12217 | -67.88071 | 6028 ft | 268 kts | 98° |
| 2026-04-12 17:34 | 6.11949 | -67.86224 | 5703 ft | 267 kts | 98° |
| 2026-04-12 17:34 | 6.11679 | -67.84382 | 5398 ft | 266 kts | 99° |
| 2026-04-12 17:35 | 6.11411 | -67.82550 | 5087 ft | 264 kts | 98° |
| 2026-04-12 17:35 | 6.11145 | -67.80728 | 4782 ft | 263 kts | 98° |
| 2026-04-12 17:35 | 6.10885 | -67.78939 | 4474 ft | 263 kts | 98° |
| 2026-04-12 17:35 | 6.10618 | -67.77104 | 4248 ft | 259 kts | 98° |
| 2026-04-12 17:36 | 6.10366 | -67.75369 | 4128 ft | 250 kts | 98° |
| 2026-04-12 17:36 | 6.10119 | -67.73668 | 4013 ft | 242 kts | 98° |
| 2026-04-12 17:36 | 6.09877 | -67.72023 | 3897 ft | 234 kts | 98° |
| 2026-04-12 17:36 | 6.09648 | -67.70440 | 3825 ft | 222 kts | 98° |
| 2026-04-12 17:37 | 6.09432 | -67.68951 | 3717 ft | 209 kts | 98° |
| 2026-04-12 17:37 | 6.09229 | -67.67554 | 3616 ft | 196 kts | 98° |
| 2026-04-12 17:37 | 6.09069 | -67.66236 | 3515 ft | 183 kts | 88° |
| 2026-04-12 17:37 | 6.09493 | -67.65079 | 3328 ft | 174 kts | 59° |
| 2026-04-12 17:38 | 6.10081 | -67.64066 | 3149 ft | 161 kts | 60° |
| 2026-04-12 17:38 | 6.10610 | -67.63135 | 2964 ft | 148 kts | 60° |
| 2026-04-12 17:38 | 6.11109 | -67.62259 | 2815 ft | 141 kts | 60° |
| 2026-04-12 17:38 | 6.11595 | -67.61404 | 2674 ft | 143 kts | 60° |
| 2026-04-12 17:39 | 6.12085 | -67.60545 | 2492 ft | 139 kts | 61° |
| 2026-04-12 17:39 | 6.12560 | -67.59715 | 2326 ft | 136 kts | 60° |
| 2026-04-12 17:39 | 6.13032 | -67.58887 | 2166 ft | 137 kts | 61° |
| 2026-04-12 17:39 | 6.13506 | -67.58051 | 1995 ft | 138 kts | 61° |
| 2026-04-12 17:40 | 6.13979 | -67.57219 | 1805 ft | 136 kts | 61° |
| 2026-04-12 17:40 | 6.14455 | -67.56388 | 1627 ft | 140 kts | 61° |
| 2026-04-12 17:40 | 6.14944 | -67.55550 | 1412 ft | 138 kts | 60° |
| 2026-04-12 17:40 | 6.15432 | -67.54714 | 1168 ft | 139 kts | 61° |
| 2026-04-12 17:41 | 6.15911 | -67.53877 | 1022 ft | 138 kts | 62° |
| 2026-04-12 17:41 | 6.16384 | -67.53026 | 833 ft | 141 kts | 62° |
| 2026-04-12 17:41 | 6.16861 | -67.52162 | 659 ft | 140 kts | 62° |
| 2026-04-12 17:41 | 6.17329 | -67.51331 | 466 ft | 135 kts | 60° |
| 2026-04-12 17:42 | 6.17791 | -67.50521 | 301 ft | 133 kts | 61° |
| 2026-04-12 17:42 | 6.18237 | -67.49736 | 179 ft | 128 kts | 60° |
| 2026-04-12 17:42 | 6.18540 | -67.49205 | 181 ft | 54 kts | 60° |
| 2026-04-12 17:43 | 6.18602 | -67.49071 | 180 ft | 4 kts | 176° |
| 2026-04-12 17:43 | 6.18556 | -67.49080 | 180 ft | 8 kts | 193° |
| 2026-04-12 17:43 | 6.18510 | -67.49095 | 181 ft | 0 kts | 198° |
| 2026-04-12 17:44 | 6.18500 | -67.49098 | 181 ft | 2 kts | 195° |
| 2026-04-12 17:44 | 6.18479 | -67.49103 | 181 ft | 1 kts | 188° |
| 2026-04-12 17:44 | 6.18467 | -67.49101 | 181 ft | 3 kts | 177° |
| 2026-04-12 17:45 | 6.18451 | -67.49091 | 181 ft | 0 kts | 144° |